Time;durP1;ratioP1;P1;durP2;ratioP2;P2;SDS_P1;SDS_P2;PMS_P1;PMS_P2;Temp;Humidity;BMP_temperature;BMP_pressure;BME280_temperature;BME280_humidity;BME280_pressure;Samples;Min_cycle;Max_cycle;Signal;HPM_P1;HPM_P2
2024/01/09 00:01:16;;;;;;;3.35;1.33;;;;;;;-7.02;65.24;99657.06;5084406;28;20119;-52
2024/01/09 00:03:42;;;;;;;2.35;1.00;;;;;;;-6.73;65.71;99685.84;5082886;28;20507;-54
2024/01/09 00:06:16;;;;;;;3.17;1.50;;;;;;;-6.90;65.41;99644.81;5081812;28;20123;-53
2024/01/09 00:08:43;;;;;;;4.85;1.88;;;;;;;-6.62;65.50;99687.06;5071812;28;20040;-51
2024/01/09 00:11:13;;;;;;;2.90;1.20;;;;;;;-6.74;65.94;99662.22;5082798;28;20039;-54
2024/01/09 00:13:40;;;;;;;5.20;1.40;;;;;;;-6.46;65.03;99689.28;5082864;28;20044;-53
2024/01/09 00:16:06;;;;;;;3.45;1.58;;;;;;;-6.43;65.57;99679.25;5065832;28;20131;-52
2024/01/09 00:18:33;;;;;;;2.50;1.30;;;;;;;-6.63;65.58;99650.81;5080899;28;20040;-49
2024/01/09 00:20:59;;;;;;;4.28;1.27;;;;;;;-6.39;65.35;99686.16;5076854;28;20043;-51
2024/01/09 00:23:25;;;;;;;3.53;1.58;;;;;;;-6.43;65.20;99687.72;5062535;28;20131;-50
2024/01/09 00:25:51;;;;;;;3.70;1.17;;;;;;;-6.56;65.31;99660.31;5079621;28;20044;-52
2024/01/09 00:28:20;;;;;;;3.03;1.10;;;;;;;-6.33;65.28;99688.03;5083612;28;20035;-47
2024/01/09 00:30:47;;;;;;;2.15;1.65;;;;;;;-6.32;65.20;99684.69;5082197;28;20040;-50
2024/01/09 00:33:13;;;;;;;2.30;1.17;;;;;;;-6.26;65.30;99678.16;5080183;28;20043;-53
2024/01/09 00:35:39;;;;;;;4.22;1.50;;;;;;;-6.23;65.29;99675.75;5074923;28;20040;-53
2024/01/09 00:38:05;;;;;;;2.47;1.27;;;;;;;-6.25;65.38;99668.91;5078157;28;20074;-50
2024/01/09 00:40:31;;;;;;;1.83;1.17;;;;;;;-6.18;65.61;99675.88;5043179;28;20113;-53
2024/01/09 00:42:58;;;;;;;1.90;1.08;;;;;;;-6.15;65.47;99683.56;5090120;28;20113;-50
2024/01/09 00:45:24;;;;;;;2.10;1.02;;;;;;;-6.36;65.17;99640.72;5078119;28;20049;-52
2024/01/09 00:47:50;;;;;;;2.35;1.02;;;;;;;-6.09;65.66;99681.22;5082201;28;20039;-51
2024/01/09 00:50:16;;;;;;;1.73;1.00;;;;;;;-6.09;65.47;99686.28;5083457;28;20044;-51
2024/01/09 00:52:43;;;;;;;2.65;1.17;;;;;;;-6.07;65.37;99687.19;5066774;28;20047;-56
2024/01/09 00:55:10;;;;;;;2.58;1.20;;;;;;;-6.36;65.48;99652.53;5082534;28;20188;-56
2024/01/09 00:57:37;;;;;;;2.78;1.30;;;;;;;-6.15;65.61;99688.63;5083016;28;20044;-50
2024/01/09 01:00:04;;;;;;;3.08;0.90;;;;;;;-6.12;65.33;99686.16;5082625;28;20544;-53
2024/01/09 01:02:32;;;;;;;5.53;1.05;;;;;;;-6.09;65.50;99683.75;5064177;28;20040;-53
2024/01/09 01:04:58;;;;;;;4.97;1.10;;;;;;;-6.33;65.06;99627.34;5069432;28;20031;-51
2024/01/09 01:07:24;;;;;;;2.83;1.20;;;;;;;-6.14;65.63;99677.69;5080890;28;20044;-51
2024/01/09 01:09:51;;;;;;;2.60;1.13;;;;;;;-6.09;65.44;99674.50;5081752;28;20044;-51
2024/01/09 01:12:17;;;;;;;2.47;1.27;;;;;;;-6.09;65.50;99669.44;5081803;28;20096;-54
2024/01/09 01:14:44;;;;;;;1.73;1.00;;;;;;;-6.14;65.30;99677.69;5063759;28;20039;-56
2024/01/09 01:17:11;;;;;;;5.75;1.27;;;;;;;-6.39;64.98;99627.16;5080071;28;20040;-53
2024/01/09 01:19:37;;;;;;;2.38;1.25;;;;;;;-6.13;64.97;99671.81;5080144;28;20093;-55
2024/01/09 01:22:06;;;;;;;1.73;0.90;;;;;;;-6.43;65.07;99626.16;5078668;28;20035;-52
2024/01/09 01:24:32;;;;;;;4.25;1.55;;;;;;;-6.20;65.60;99668.25;5082817;28;20164;-51
2024/01/09 01:26:58;;;;;;;2.38;1.23;;;;;;;-6.14;65.39;99675.16;5074294;28;20036;-56
2024/01/09 01:29:26;;;;;;;3.40;0.98;;;;;;;-6.10;65.36;99674.44;5065285;28;20035;-53
2024/01/09 01:31:59;;;;;;;2.55;1.52;;;;;;;-6.07;64.75;99677.09;5077150;28;20050;-52
2024/01/09 01:34:26;;;;;;;2.20;1.20;;;;;;;-6.04;65.15;99667.91;5079365;28;20044;-53
2024/01/09 01:36:52;;;;;;;2.33;1.35;;;;;;;-6.01;65.15;99673.06;5062357;28;20052;-51
2024/01/09 01:39:18;;;;;;;1.02;0.80;;;;;;;-5.98;64.81;99673.97;5066541;28;20510;-54
2024/01/09 01:41:45;;;;;;;1.65;0.82;;;;;;;-5.88;64.92;99664.19;5080371;28;20096;-51
2024/01/09 01:44:17;;;;;;;1.77;1.05;;;;;;;-5.89;64.92;99664.13;5079614;28;20056;-55
2024/01/09 01:46:44;;;;;;;2.60;1.05;;;;;;;-5.92;65.03;99657.31;5066636;28;20036;-53
2024/01/09 01:49:11;;;;;;;2.63;1.10;;;;;;;-5.86;64.91;99662.50;5082102;28;20052;-53
2024/01/09 01:51:38;;;;;;;2.53;1.27;;;;;;;-5.83;64.77;99662.59;5079220;28;20707;-56
2024/01/09 01:54:04;;;;;;;5.68;1.27;;;;;;;-5.75;64.79;99663.69;5086008;28;20044;-50
2024/01/09 01:56:30;;;;;;;3.47;1.20;;;;;;;-5.71;64.63;99665.53;5053356;28;20058;-52
2024/01/09 01:58:57;;;;;;;2.53;1.20;;;;;;;-5.72;64.14;99653.66;5070301;28;20035;-53
2024/01/09 02:01:24;;;;;;;3.10;1.60;;;;;;;-5.77;64.68;99670.41;5085723;28;20044;-56
2024/01/09 02:03:50;;;;;;;1.60;0.80;;;;;;;-5.79;64.26;99666.09;5083585;28;20042;-54
2024/01/09 02:06:16;;;;;;;3.22;1.20;;;;;;;-5.79;64.26;99666.94;5082038;28;20036;-52
2024/01/09 02:08:43;;;;;;;1.40;1.05;;;;;;;-5.74;64.20;99669.59;5069165;28;20146;-50
2024/01/09 02:11:10;;;;;;;1.55;0.77;;;;;;;-5.76;64.59;99669.59;5081787;28;20071;-53
2024/01/09 02:13:36;;;;;;;2.00;1.15;;;;;;;-5.75;63.97;99675.47;5052480;28;20071;-55
2024/01/09 02:16:03;;;;;;;5.57;1.58;;;;;;;-5.74;64.30;99664.53;5080161;28;20797;-57
2024/01/09 02:18:29;;;;;;;2.58;1.33;;;;;;;-5.74;63.87;99674.66;5085381;28;20031;-55
2024/01/09 02:20:55;;;;;;;2.97;1.50;;;;;;;-5.77;64.28;99667.00;5082608;28;20066;-51
2024/01/09 02:23:22;;;;;;;1.58;0.90;;;;;;;-5.74;64.43;99670.47;5068161;28;20068;-54
2024/01/09 02:25:49;;;;;;;1.02;0.63;;;;;;;-5.72;64.11;99668.00;5085223;28;20044;-52
2024/01/09 02:28:27;;;;;;;2.03;1.00;;;;;;;-5.71;64.23;99680.72;5087908;28;20040;-49
2024/01/09 02:30:55;;;;;;;5.90;1.63;;;;;;;-5.96;64.08;99630.16;5063353;28;20573;-55
2024/01/09 02:33:21;;;;;;;2.58;1.10;;;;;;;-5.68;64.35;99683.31;5084491;28;20032;-52
2024/01/09 02:35:47;;;;;;;3.42;1.20;;;;;;;-5.69;64.16;99681.59;5082666;28;20047;-51
2024/01/09 02:38:16;;;;;;;2.67;1.20;;;;;;;-5.83;64.25;99649.94;5069662;28;20044;-53
2024/01/09 02:40:42;;;;;;;2.67;0.98;;;;;;;-5.63;64.06;99676.72;5085002;28;20278;-53
2024/01/09 02:43:09;;;;;;;3.78;1.33;;;;;;;-5.59;64.12;99683.59;5085313;28;20070;-51
2024/01/09 02:45:35;;;;;;;2.97;1.58;;;;;;;-5.62;63.99;99693.63;5083539;28;20048;-52
2024/01/09 02:48:01;;;;;;;2.65;1.10;;;;;;;-5.63;64.33;99691.03;5083642;28;20143;-52
2024/01/09 02:50:27;;;;;;;3.58;1.63;;;;;;;-5.85;64.59;99650.69;5084714;28;20040;-53
2024/01/09 02:52:54;;;;;;;2.75;1.35;;;;;;;-5.67;64.33;99682.50;5084662;28;20043;-51
2024/01/09 02:55:20;;;;;;;3.60;1.40;;;;;;;-5.87;64.16;99645.66;5086015;28;20036;-53
2024/01/09 02:57:46;;;;;;;2.47;1.17;;;;;;;-5.58;64.53;99694.56;5083775;28;20039;-53
2024/01/09 03:00:12;;;;;;;3.58;1.55;;;;;;;-5.59;64.42;99691.19;5086453;28;20071;-51
2024/01/09 03:02:38;;;;;;;2.92;1.50;;;;;;;-5.51;64.67;99698.16;5085310;28;20043;-50
2024/01/09 03:05:07;;;;;;;2.70;1.38;;;;;;;-5.49;64.21;99693.97;5084130;28;20102;-52
2024/01/09 03:07:34;;;;;;;2.70;1.33;;;;;;;-5.81;64.51;99638.19;5083787;28;20078;-55
2024/01/09 03:10:01;;;;;;;2.75;1.27;;;;;;;-5.72;64.10;99665.47;5085526;28;20552;-54
2024/01/09 03:12:31;;;;;;;1.45;0.98;;;;;;;-5.42;64.15;99698.41;5077635;28;20047;-53
2024/01/09 03:14:57;;;;;;;2.13;1.35;;;;;;;-5.40;64.13;99705.25;5069863;28;20077;-51
2024/01/09 03:17:23;;;;;;;2.42;1.23;;;;;;;-5.38;63.75;99700.22;5079404;28;20581;-53
2024/01/09 03:19:50;;;;;;;3.15;1.45;;;;;;;-5.35;64.31;99700.31;5083722;28;20090;-50
2024/01/09 03:22:16;;;;;;;3.60;1.27;;;;;;;-5.30;63.69;99703.84;5050218;28;20427;-53
2024/01/09 03:24:42;;;;;;;3.03;1.60;;;;;;;-5.77;63.67;99622.28;5086228;28;20035;-57
2024/01/09 03:27:09;;;;;;;3.00;1.45;;;;;;;-5.58;63.66;99665.03;5080281;28;20036;-53
2024/01/09 03:29:35;;;;;;;3.47;1.20;;;;;;;-5.36;63.32;99685.94;5068171;28;20039;-53
2024/01/09 03:32:02;;;;;;;2.58;1.10;;;;;;;-5.27;63.59;99706.47;5081986;28;20605;-54
2024/01/09 03:34:28;;;;;;;3.33;1.40;;;;;;;-5.25;63.34;99708.25;5082474;28;20048;-53
2024/01/09 03:36:54;;;;;;;3.88;1.70;;;;;;;-5.25;63.84;99700.63;5083861;28;20044;-51
2024/01/09 03:39:20;;;;;;;3.97;1.20;;;;;;;-5.44;63.28;99654.47;5083284;28;20033;-52
2024/01/09 03:41:46;;;;;;;2.13;1.33;;;;;;;-5.29;63.68;99692.91;5079481;28;20070;-51
2024/01/09 03:44:13;;;;;;;3.35;1.50;;;;;;;-5.29;62.97;99688.69;5084489;28;20051;-50
2024/01/09 03:46:40;;;;;;;2.88;1.30;;;;;;;-5.28;63.24;99695.47;5085673;28;20050;-50
2024/01/09 03:49:06;;;;;;;2.53;1.17;;;;;;;-5.31;63.05;99682.72;5083999;28;20512;-50
2024/01/09 03:51:33;;;;;;;5.43;1.35;;;;;;;-5.30;63.31;99679.38;5085300;28;20083;-51
2024/01/09 03:54:02;;;;;;;3.67;1.40;;;;;;;-5.35;63.13;99673.31;5079608;28;20044;-53
2024/01/09 03:56:29;;;;;;;3.58;1.50;;;;;;;-5.58;63.17;99642.25;5079736;28;20150;-52
2024/01/09 03:58:55;;;;;;;8.85;1.88;;;;;;;-5.48;62.94;99662.78;5085823;28;20066;-54
2024/01/09 04:01:22;;;;;;;3.55;1.55;;;;;;;-5.33;63.20;99686.88;5081336;28;20458;-51
2024/01/09 04:03:48;;;;;;;2.05;1.23;;;;;;;-5.55;62.94;99664.28;5078377;28;20088;-51
2024/01/09 04:06:15;;;;;;;2.70;1.20;;;;;;;-5.32;62.68;99691.13;5082415;28;20035;-53
2024/01/09 04:08:41;;;;;;;3.60;1.48;;;;;;;-5.31;62.74;99689.47;5081888;28;20511;-53
2024/01/09 04:11:08;;;;;;;3.05;1.30;;;;;;;-5.49;62.63;99650.91;5062911;28;20040;-50
2024/01/09 04:13:34;;;;;;;2.08;1.33;;;;;;;-5.35;62.85;99690.19;5079685;28;20693;-51
2024/01/09 04:16:01;;;;;;;1.70;1.15;;;;;;;-5.35;62.87;99693.59;5063715;28;20080;-51
2024/01/09 04:18:27;;;;;;;3.20;1.60;;;;;;;-5.34;62.17;99692.75;5083428;28;20051;-59
2024/01/09 04:20:53;;;;;;;2.22;1.13;;;;;;;-5.27;62.42;99693.78;5081636;28;20073;-52
2024/01/09 04:23:20;;;;;;;2.30;1.27;;;;;;;-5.28;62.16;99703.06;5073130;28;20052;-51
2024/01/09 04:25:46;;;;;;;5.95;1.30;;;;;;;-5.28;61.68;99692.94;5052445;28;20056;-53
2024/01/09 04:28:13;;;;;;;3.03;1.60;;;;;;;-5.28;62.35;99702.19;5083448;28;20036;-52
2024/01/09 04:30:39;;;;;;;3.85;1.30;;;;;;;-5.28;61.68;99692.94;5065948;28;20043;-53
2024/01/09 04:33:05;;;;;;;2.42;1.20;;;;;;;-5.31;61.89;99687.78;5083689;28;20519;-50
2024/01/09 04:35:32;;;;;;;3.45;1.05;;;;;;;-5.31;62.55;99697.06;5081165;28;20046;-52
2024/01/09 04:37:58;;;;;;;11.00;1.50;;;;;;;-5.52;62.37;99664.38;5062905;28;20047;-53
2024/01/09 04:40:27;;;;;;;3.85;1.45;;;;;;;-5.28;62.18;99710.66;5077234;28;20036;-52
2024/01/09 04:42:54;;;;;;;3.95;1.30;;;;;;;-5.29;61.57;99710.63;5073934;28;20541;-56
2024/01/09 04:45:20;;;;;;;3.22;1.60;;;;;;;-5.45;62.10;99684.00;5057032;28;20043;-48
2024/01/09 04:47:46;;;;;;;2.45;1.10;;;;;;;-5.26;62.15;99716.66;5075844;28;20044;-53
2024/01/09 04:50:12;;;;;;;3.92;1.40;;;;;;;-5.43;61.76;99695.03;5076360;28;20047;-54
2024/01/09 04:52:39;;;;;;;8.98;2.03;;;;;;;-5.23;61.85;99721.78;5062888;28;20473;-56
2024/01/09 04:55:05;;;;;;;3.50;1.42;;;;;;;-5.24;62.03;99717.56;5072610;28;20040;-54
2024/01/09 04:57:32;;;;;;;2.40;1.27;;;;;;;-5.20;61.69;99729.50;5054033;28;20144;-54
2024/01/09 04:59:59;;;;;;;4.00;1.58;;;;;;;-5.50;61.78;99688.06;5069902;28;20036;-53
2024/01/09 05:02:30;;;;;;;2.78;1.15;;;;;;;-5.25;61.57;99725.97;5067413;28;20093;-55
2024/01/09 05:04:57;;;;;;;3.08;1.45;;;;;;;-5.22;62.04;99733.66;5078381;28;20040;-54
2024/01/09 05:07:23;;;;;;;3.22;1.63;;;;;;;-5.17;61.74;99724.50;5068260;28;20518;-52
2024/01/09 05:09:50;;;;;;;5.57;1.98;;;;;;;-5.13;61.68;99730.53;5076329;28;20044;-54
2024/01/09 05:12:16;;;;;;;3.53;1.35;;;;;;;-5.08;61.81;99733.19;5079166;28;20048;-57
2024/01/09 05:14:42;;;;;;;2.97;1.88;;;;;;;-5.06;61.96;99722.28;5053716;28;20074;-55
2024/01/09 05:17:08;;;;;;;3.90;1.67;;;;;;;-5.48;62.04;99639.97;5071053;28;20537;-56
2024/01/09 05:19:35;;;;;;;2.63;1.30;;;;;;;-5.28;61.59;99692.94;5064063;28;20044;-55
2024/01/09 05:22:01;;;;;;;3.25;1.45;;;;;;;-5.05;61.56;99721.47;5079500;28;20067;-54
2024/01/09 05:24:27;;;;;;;3.25;1.50;;;;;;;-5.05;62.04;99733.28;5076739;28;20064;-54
2024/01/09 05:26:53;;;;;;;2.88;1.50;;;;;;;-5.05;61.50;99729.06;5076189;28;20044;-53
2024/01/09 05:29:19;;;;;;;2.67;1.30;;;;;;;-5.38;61.87;99692.63;5048908;28;20502;-51
2024/01/09 05:31:45;;;;;;;4.82;1.55;;;;;;;-5.32;61.78;99713.94;5062181;28;20562;-53
2024/01/09 05:34:12;;;;;;;1.70;1.17;;;;;;;-5.46;61.89;99696.63;5053751;28;20044;-53
2024/01/09 05:36:38;;;;;;;4.57;1.52;;;;;;;-5.22;61.86;99733.66;5071005;28;20071;-53
2024/01/09 05:39:04;;;;;;;3.63;1.30;;;;;;;-5.15;62.45;99722.03;5084460;28;20520;-54
2024/01/09 05:41:30;;;;;;;4.32;1.92;;;;;;;-5.12;62.14;99722.97;5074411;28;20040;-53
2024/01/09 05:43:57;;;;;;;5.22;1.15;;;;;;;-5.08;62.24;99723.06;5067386;28;20174;-51
2024/01/09 05:46:24;;;;;;;2.13;1.23;;;;;;;-5.08;61.83;99718.00;5062687;28;20635;-55
2024/01/09 05:48:50;;;;;;;3.13;1.40;;;;;;;-5.03;62.35;99736.72;5079220;28;20098;-56
2024/01/09 05:51:16;;;;;;;2.58;1.20;;;;;;;-5.13;62.05;99746.56;5080243;28;20130;-54
2024/01/09 05:53:44;;;;;;;3.47;1.80;;;;;;;-5.06;62.52;99746.75;5091635;28;20041;-55
2024/01/09 05:56:10;;;;;;;2.47;1.40;;;;;;;-5.05;62.39;99746.81;5081009;28;20131;-53
2024/01/09 05:58:36;;;;;;;6.40;2.50;;;;;;;-5.06;62.10;99750.16;5082073;28;20054;-52
2024/01/09 06:01:03;;;;;;;3.65;2.10;;;;;;;-5.02;62.32;99751.94;5057720;28;20517;-55
2024/01/09 06:03:30;;;;;;;2.30;1.23;;;;;;;-4.97;62.18;99759.72;5072264;28;20044;-53
2024/01/09 06:05:56;;;;;;;2.95;1.30;;;;;;;-4.99;62.28;99762.19;5068258;28;20041;-54
2024/01/09 06:08:23;;;;;;;3.45;1.27;;;;;;;-4.95;62.04;99764.00;5086105;28;20070;-54
2024/01/09 06:10:49;;;;;;;3.88;1.73;;;;;;;-4.95;62.43;99764.00;5068829;28;20512;-52
2024/01/09 06:13:16;;;;;;;3.30;1.50;;;;;;;-4.94;62.56;99768.25;5079317;28;20054;-54
2024/01/09 06:15:42;;;;;;;5.03;1.98;;;;;;;-4.98;62.59;99771.53;5060181;28;20559;-58
2024/01/09 06:18:11;;;;;;;3.40;1.88;;;;;;;-4.93;62.04;99766.59;5076966;28;20037;-54
2024/01/09 06:20:37;;;;;;;3.03;1.40;;;;;;;-4.88;62.24;99773.50;5049867;28;20073;-56
2024/01/09 06:23:04;;;;;;;2.80;1.20;;;;;;;-4.84;61.75;99771.91;5079203;28;20116;-55
2024/01/09 06:25:31;;;;;;;3.83;1.95;;;;;;;-4.83;62.35;99766.88;5054872;28;20036;-56
2024/01/09 06:27:57;;;;;;;4.93;1.70;;;;;;;-4.81;62.27;99770.31;5071972;28;20122;-54
2024/01/09 06:30:24;;;;;;;4.45;1.55;;;;;;;-4.79;61.72;99772.91;5077013;28;20043;-53
2024/01/09 06:32:50;;;;;;;2.50;1.33;;;;;;;-4.92;61.64;99769.13;5072188;28;20040;-56
2024/01/09 06:35:16;;;;;;;5.03;1.77;;;;;;;-4.85;61.97;99763.44;5069666;28;20040;-55
2024/01/09 06:37:43;;;;;;;3.15;1.35;;;;;;;-5.07;61.75;99732.34;5051982;28;20165;-53
2024/01/09 06:40:10;;;;;;;3.17;1.60;;;;;;;-4.83;61.54;99771.09;5073804;28;20032;-52
2024/01/09 06:42:37;;;;;;;4.90;1.42;;;;;;;-4.81;61.96;99779.59;5070514;28;20394;-58
2024/01/09 06:45:04;;;;;;;4.00;1.23;;;;;;;-4.81;61.29;99774.50;5089135;28;20032;-58
2024/01/09 06:47:31;;;;;;;3.47;1.27;;;;;;;-5.05;61.34;99744.28;5080917;28;20058;-56
2024/01/09 06:49:57;;;;;;;3.10;1.52;;;;;;;-4.89;61.47;99763.31;5079090;28;20574;-54
2024/01/09 06:52:23;;;;;;;3.20;1.20;;;;;;;-4.71;61.51;99789.19;5074057;28;20070;-50
2024/01/09 06:54:49;;;;;;;3.15;1.50;;;;;;;-4.68;60.97;99796.00;5073961;28;20033;-52
2024/01/09 06:57:16;;;;;;;3.75;1.67;;;;;;;-4.67;61.03;99796.06;5071578;28;20040;-54
2024/01/09 06:59:44;;;;;;;3.47;1.55;;;;;;;-4.61;60.84;99801.31;5072568;28;20055;-57
2024/01/09 07:02:11;;;;;;;1.88;1.23;;;;;;;-4.59;60.85;99807.28;5069150;28;20067;-53
2024/01/09 07:04:37;;;;;;;4.13;1.65;;;;;;;-4.59;60.69;99803.88;5071859;28;20051;-57
2024/01/09 07:07:03;;;;;;;3.40;1.00;;;;;;;-4.78;60.48;99765.34;5072106;28;20117;-56
2024/01/09 07:09:29;;;;;;;2.17;0.93;;;;;;;-4.54;60.47;99799.78;5065079;28;20036;-56
2024/01/09 07:11:55;;;;;;;2.97;1.15;;;;;;;-4.51;59.58;99803.28;5078058;28;20047;-59
2024/01/09 07:14:21;;;;;;;2.22;1.05;;;;;;;-4.67;59.76;99765.63;5062042;28;20426;-54
2024/01/09 07:16:48;;;;;;;2.88;1.20;;;;;;;-4.52;59.71;99796.47;5060884;28;20048;-54
2024/01/09 07:19:15;;;;;;;4.13;1.23;;;;;;;-4.95;59.46;99717.50;5057832;28;20109;-55
2024/01/09 07:21:40;;;;;;;2.45;1.10;;;;;;;-4.52;59.94;99793.94;5071751;28;20043;-54
2024/01/09 07:24:07;;;;;;;2.72;1.08;;;;;;;-4.48;59.03;99805.03;5071677;28;20075;-53
2024/01/09 07:26:42;;;;;;;3.65;1.08;;;;;;;-4.43;59.93;99804.34;5080902;28;20035;-52
2024/01/09 07:29:15;;;;;;;2.10;0.93;;;;;;;-4.43;58.91;99799.25;5070395;28;20815;-54
2024/01/09 07:31:42;;;;;;;3.50;1.15;;;;;;;-4.44;59.06;99805.16;5071472;28;20033;-51
2024/01/09 07:34:09;;;;;;;2.13;1.00;;;;;;;-4.41;58.81;99817.06;5078041;28;20048;-54
2024/01/09 07:36:35;;;;;;;1.45;1.15;;;;;;;-4.42;58.67;99811.13;5078099;28;20049;-55
2024/01/09 07:39:01;;;;;;;2.10;0.98;;;;;;;-4.36;59.04;99815.53;5038164;28;20143;-54
2024/01/09 07:41:27;;;;;;;2.90;1.40;;;;;;;-4.28;58.65;99821.66;5065019;28;20086;-57
2024/01/09 07:43:54;;;;;;;3.15;1.50;;;;;;;-4.27;58.92;99823.38;5081259;28;20504;-53
2024/01/09 07:46:20;;;;;;;3.67;1.40;;;;;;;-4.23;59.21;99817.56;5071909;28;20052;-54
2024/01/09 07:48:46;;;;;;;3.65;1.35;;;;;;;-4.24;58.97;99807.38;5064119;28;20037;-54
2024/01/09 07:51:12;;;;;;;3.58;1.40;;;;;;;-4.33;58.79;99790.22;5080427;28;20040;-57
2024/01/09 07:53:39;;;;;;;2.38;1.02;;;;;;;-4.34;58.15;99793.56;5071225;28;20587;-54
2024/01/09 07:56:17;;;;;;;3.50;1.65;;;;;;;-4.05;58.69;99840.03;5069895;28;20135;-54
2024/01/09 07:58:44;;;;;;;3.87;1.70;;;;;;;-4.14;58.49;99801.72;5068602;28;20036;-52
2024/01/09 08:01:14;;;;;;;3.50;1.30;;;;;;;-3.94;58.35;99833.56;5077345;28;20037;-54
2024/01/09 08:03:41;;;;;;;2.25;1.23;;;;;;;-4.01;57.95;99834.22;5071341;28;20508;-59
2024/01/09 08:06:16;;;;;;;2.10;1.25;;;;;;;-3.98;58.21;99832.59;5042161;28;20047;-53
2024/01/09 08:08:43;;;;;;;3.50;1.08;;;;;;;-3.86;57.86;99843.09;5067369;28;20050;-53
2024/01/09 08:11:10;;;;;;;1.90;1.20;;;;;;;-3.86;57.87;99835.47;5067083;28;20048;-50
2024/01/09 08:13:37;;;;;;;1.90;0.77;;;;;;;-3.85;56.94;99829.56;5076220;28;20039;-55
2024/01/09 08:16:04;;;;;;;2.35;1.05;;;;;;;-3.78;57.02;99828.06;5062849;28;20142;-56
2024/01/09 08:18:32;;;;;;;3.10;0.90;;;;;;;-3.63;56.68;99820.81;5045161;28;20055;-54
2024/01/09 08:21:01;;;;;;;1.42;1.00;;;;;;;-3.55;56.55;99820.97;5071010;28;20131;-58
2024/01/09 08:23:27;;;;;;;2.35;1.00;;;;;;;-3.49;56.39;99809.28;5067948;28;20052;-57
2024/01/09 08:25:53;;;;;;;1.42;0.77;;;;;;;-3.45;56.35;99813.59;5078980;28;20106;-58
2024/01/09 08:28:20;;;;;;;2.03;0.85;;;;;;;-3.57;56.47;99787.94;5065050;28;20044;-53
2024/01/09 08:30:47;;;;;;;4.05;1.10;;;;;;;-3.35;56.03;99822.31;5070272;28;20040;-54
2024/01/09 08:33:14;;;;;;;2.80;1.08;;;;;;;-3.51;56.05;99769.44;5067641;28;20551;-56
2024/01/09 08:35:40;;;;;;;3.53;1.83;;;;;;;-3.15;55.95;99810.06;5061257;28;20066;-55
2024/01/09 08:38:07;;;;;;;3.33;1.67;;;;;;;-2.98;56.01;99810.44;5070153;28;20043;-56
2024/01/09 08:40:33;;;;;;;5.85;1.33;;;;;;;-3.29;55.53;99745.31;5071016;28;20085;-56
2024/01/09 08:43:00;;;;;;;3.15;0.95;;;;;;;-2.95;55.78;99793.53;5083888;28;20394;-58
2024/01/09 08:45:27;;;;;;;2.67;1.10;;;;;;;-3.07;55.22;99800.91;5068557;28;20040;-54
2024/01/09 08:47:56;;;;;;;1.58;0.95;;;;;;;-3.33;54.75;99746.94;5074380;28;20138;-55
2024/01/09 08:50:23;;;;;;;2.47;1.17;;;;;;;-3.09;54.66;99787.31;5074354;28;20692;-56
2024/01/09 08:52:50;;;;;;;3.28;1.20;;;;;;;-3.30;55.02;99744.50;5076727;28;20130;-58
2024/01/09 08:55:17;;;;;;;2.75;1.23;;;;;;;-3.19;54.28;99783.69;5038755;28;20127;-56
2024/01/09 08:57:45;;;;;;;2.60;1.20;;;;;;;-3.39;54.30;99756.13;5075548;28;20075;-56
2024/01/09 09:00:13;;;;;;;1.75;1.40;;;;;;;-3.29;54.78;99783.44;5061851;28;20056;-53
2024/01/09 09:02:39;;;;;;;2.72;1.08;;;;;;;-3.25;54.91;99781.03;5061639;28;20267;-57
2024/01/09 09:05:06;;;;;;;10.25;1.80;;;;;;;-3.73;54.63;99708.78;5068923;28;20050;-55
2024/01/09 09:07:32;;;;;;;3.58;1.20;;;;;;;-3.32;54.61;99775.78;5075903;28;20036;-54
2024/01/09 09:09:58;;;;;;;2.88;1.20;;;;;;;-3.35;54.64;99779.13;5068325;28;20507;-55
2024/01/09 09:12:25;;;;;;;3.17;1.40;;;;;;;-3.19;54.56;99775.22;5070102;28;20100;-57
2024/01/09 09:14:51;;;;;;;2.78;1.17;;;;;;;-3.00;54.28;99782.41;5055092;28;20045;-56
2024/01/09 09:17:22;;;;;;;5.07;1.33;;;;;;;-3.26;53.38;99718.31;5072471;28;20053;-56
2024/01/09 09:19:48;;;;;;;3.55;1.50;;;;;;;-2.47;53.55;99770.78;5071354;28;20051;-57
2024/01/09 09:22:14;;;;;;;2.08;1.35;;;;;;;-2.23;53.02;99757.63;5067671;28;20140;-58
2024/01/09 09:24:42;;;;;;;3.03;1.60;;;;;;;-2.06;52.79;99763.88;5068093;28;20039;-55
2024/01/09 09:27:08;;;;;;;4.07;1.70;;;;;;;-1.91;52.75;99776.00;5068485;28;20090;-57
2024/01/09 09:29:35;;;;;;;4.10;1.60;;;;;;;-2.05;52.67;99736.72;5068737;28;20044;-53
2024/01/09 09:32:01;;;;;;;1.85;1.13;;;;;;;-1.92;52.86;99780.25;5068477;28;20048;-53
2024/01/09 09:34:28;;;;;;;5.90;1.40;;;;;;;-2.03;53.01;99765.59;5067536;28;20071;-53
2024/01/09 09:36:54;;;;;;;2.60;1.90;;;;;;;-2.08;52.85;99759.56;5070280;28;20047;-58
2024/01/09 09:39:20;;;;;;;3.55;1.50;;;;;;;-2.28;52.89;99749.91;5078729;28;20043;-53
2024/01/09 09:41:48;;;;;;;3.15;1.63;;;;;;;-2.27;52.97;99741.44;5063418;28;20044;-55
2024/01/09 09:44:15;;;;;;;3.42;1.70;;;;;;;-2.15;52.59;99744.19;5071072;28;20072;-57
2024/01/09 09:46:41;;;;;;;2.20;1.38;;;;;;;-1.66;52.70;99741.59;5060551;28;20048;-55
2024/01/09 09:49:08;;;;;;;5.38;1.98;;;;;;;-1.31;51.96;99743.81;5070554;28;20316;-56
2024/01/09 09:51:35;;;;;;;2.70;1.60;;;;;;;-0.98;51.64;99737.44;5069623;28;20062;-56
2024/01/09 09:54:02;;;;;;;5.95;1.83;;;;;;;-0.84;51.32;99732.53;5069865;28;20040;-57
2024/01/09 09:56:28;;;;;;;5.60;1.70;;;;;;;-0.87;51.01;99731.66;5069904;28;20075;-57
2024/01/09 09:58:54;;;;;;;3.72;1.77;;;;;;;-1.13;50.91;99735.56;5072323;28;20036;-53
2024/01/09 10:01:22;;;;;;;11.10;2.00;;;;;;;-1.36;51.66;99726.75;5069411;28;20127;-55
2024/01/09 10:04:27;;;;;;;3.80;2.03;;;;;;;-1.79;51.50;99704.88;5072798;28;20047;-54
2024/01/09 10:06:57;;;;;;;4.40;1.88;;;;;;;-1.77;51.90;99728.69;5003216;28;20045;-55
2024/01/09 10:09:28;;;;;;;4.55;1.55;;;;;;;-1.73;52.04;99720.28;5041823;28;20130;-54
2024/01/09 10:11:54;;;;;;;2.30;1.27;;;;;;;-1.83;51.83;99718.38;5057205;28;20048;-61
2024/01/09 10:14:20;;;;;;;1.80;1.30;;;;;;;-2.04;51.77;99712.97;5074881;28;20190;-57
2024/01/09 10:16:56;;;;;;;4.65;1.80;;;;;;;-2.23;51.94;99721.97;5072441;28;20571;-53
2024/01/09 10:19:23;;;;;;;5.47;2.20;;;;;;;-2.33;52.18;99713.31;5071468;28;20510;-54
2024/01/09 10:21:49;;;;;;;4.43;1.48;;;;;;;-2.63;52.24;99677.16;5077553;28;20032;-54
2024/01/09 10:24:16;;;;;;;2.60;1.50;;;;;;;-2.59;52.62;99705.22;5080364;28;20138;-57
2024/01/09 10:26:42;;;;;;;3.78;1.90;;;;;;;-2.70;53.03;99693.13;5081462;28;20038;-56
2024/01/09 10:29:11;;;;;;;2.70;1.55;;;;;;;-2.67;53.01;99698.28;5071119;28;20036;-56
2024/01/09 10:31:39;;;;;;;3.53;1.45;;;;;;;-3.04;52.89;99700.13;5073712;28;20052;-60
2024/01/09 10:34:05;;;;;;;1.80;1.23;;;;;;;-3.21;53.30;99676.03;5074087;28;20101;-56
2024/01/09 10:36:31;;;;;;;4.38;1.48;;;;;;;-3.14;53.55;99695.66;5081336;28;20040;-52
2024/01/09 10:39:04;;;;;;;2.40;1.38;;;;;;;-3.37;53.63;99685.84;5074317;28;20493;-53
2024/01/09 10:41:32;;;;;;;6.18;1.50;;;;;;;-3.38;54.20;99641.78;5073333;28;20093;-53
2024/01/09 10:44:01;;;;;;;3.63;1.70;;;;;;;-3.40;54.40;99638.34;5062709;28;20131;-53
2024/01/09 10:46:31;;;;;;;4.57;1.38;;;;;;;-3.27;54.47;99647.94;5074715;28;20456;-55
2024/01/09 10:48:58;;;;;;;10.32;1.55;;;;;;;-3.00;53.81;99658.66;5073371;28;20040;-50
2024/01/09 10:51:24;;;;;;;3.53;1.40;;;;;;;-2.87;54.33;99662.28;5062661;28;20401;-54
2024/01/09 10:53:52;;;;;;;2.35;1.38;;;;;;;-2.80;53.96;99646.31;5073598;28;20085;-53
2024/01/09 10:56:20;;;;;;;3.60;1.30;;;;;;;-2.66;54.02;99660.13;5070306;28;20071;-55
2024/01/09 10:58:47;;;;;;;2.17;1.00;;;;;;;-2.74;53.64;99651.53;5067293;28;20040;-53
2024/01/09 11:01:13;;;;;;;2.50;1.23;;;;;;;-2.79;54.15;99642.09;5074523;28;20040;-53
2024/01/09 11:03:40;;;;;;;7.28;1.60;;;;;;;-3.08;54.11;99606.78;5062468;28;20047;-58
2024/01/09 11:06:07;;;;;;;4.72;1.70;;;;;;;-2.84;54.68;99641.16;5058807;28;20040;-57
2024/01/09 11:08:37;;;;;;;5.10;1.40;;;;;;;-2.72;54.13;99644.75;5064556;28;20089;-55
2024/01/09 11:11:06;;;;;;;2.42;1.15;;;;;;;-2.78;54.06;99639.59;5087060;28;20032;-53
2024/01/09 11:13:34;;;;;;;3.63;2.03;;;;;;;-3.24;54.30;99604.78;5060196;28;20483;-55
2024/01/09 11:16:02;;;;;;;3.08;1.58;;;;;;;-3.05;54.52;99641.59;5058437;28;20036;-57
2024/01/09 11:18:28;;;;;;;4.45;1.00;;;;;;;-3.49;55.00;99630.53;5081137;28;20047;-53
2024/01/09 11:21:00;;;;;;;4.70;1.42;;;;;;;-3.76;55.39;99625.75;5063409;28;20059;-56
2024/01/09 11:23:52;;;;;;;3.95;1.92;;;;;;;-3.96;56.62;99624.44;5077862;28;20602;-54
2024/01/09 11:26:20;;;;;;;1.42;1.05;;;;;;;-3.93;56.36;99622.00;5080055;28;20101;-56
2024/01/09 11:28:46;;;;;;;4.88;1.55;;;;;;;-3.90;57.01;99622.03;5064242;28;20032;-57
2024/01/09 11:31:18;;;;;;;3.25;1.45;;;;;;;-3.78;56.43;99617.25;5066710;28;20117;-54
2024/01/09 11:33:45;;;;;;;5.80;2.03;;;;;;;-3.66;56.43;99611.53;5083659;28;20044;-55